sensor_id;sensor_type;location;lat;lon;timestamp;P1;durP1;ratioP1;P2;durP2;ratioP2
20423;SDS011;10371;49.042;8.002;2022-11-11T00:00:33;4.60;;;4.20;;
20423;SDS011;10371;49.042;8.002;2022-11-11T00:01:34;5.13;;;4.63;;
20423;SDS011;10371;49.042;8.002;2022-11-11T00:02:34;5.33;;;4.60;;
20423;SDS011;10371;49.042;8.002;2022-11-11T00:03:35;5.00;;;4.50;;
20423;SDS011;10371;49.042;8.002;2022-11-11T00:04:35;5.93;;;4.43;;
20423;SDS011;10371;49.042;8.002;2022-11-11T00:05:35;5.10;;;4.70;;
20423;SDS011;10371;49.042;8.002;2022-11-11T00:06:36;5.40;;;4.50;;
20423;SDS011;10371;49.042;8.002;2022-11-11T00:07:36;5.50;;;4.27;;
20423;SDS011;10371;49.042;8.002;2022-11-11T00:08:36;5.10;;;4.50;;
20423;SDS011;10371;49.042;8.002;2022-11-11T00:09:36;6.07;;;4.80;;
20423;SDS011;10371;49.042;8.002;2022-11-11T00:10:37;4.67;;;4.37;;
20423;SDS011;10371;49.042;8.002;2022-11-11T00:11:37;5.13;;;4.63;;
20423;SDS011;10371;49.042;8.002;2022-11-11T00:12:37;5.03;;;3.93;;
20423;SDS011;10371;49.042;8.002;2022-11-11T00:13:38;3.83;;;3.50;;
20423;SDS011;10371;49.042;8.002;2022-11-11T00:14:39;3.93;;;3.50;;
20423;SDS011;10371;49.042;8.002;2022-11-11T00:15:40;5.77;;;3.80;;
20423;SDS011;10371;49.042;8.002;2022-11-11T00:16:40;3.70;;;3.40;;
20423;SDS011;10371;49.042;8.002;2022-11-11T00:17:58;3.33;;;3.00;;
20423;SDS011;10371;49.042;8.002;2022-11-11T00:19:17;4.03;;;3.63;;
20423;SDS011;10371;49.042;8.002;2022-11-11T00:20:36;4.90;;;4.50;;
20423;SDS011;10371;49.042;8.002;2022-11-11T00:21:55;4.63;;;4.23;;
20423;SDS011;10371;49.042;8.002;2022-11-11T00:23:19;6.53;;;5.77;;
20423;SDS011;10371;49.042;8.002;2022-11-11T00:24:39;5.90;;;5.40;;
20423;SDS011;10371;49.042;8.002;2022-11-11T00:25:57;8.53;;;7.00;;
20423;SDS011;10371;49.042;8.002;2022-11-11T00:27:01;7.90;;;7.27;;
20423;SDS011;10371;49.042;8.002;2022-11-11T00:28:02;8.60;;;7.90;;
20423;SDS011;10371;49.042;8.002;2022-11-11T00:29:02;8.60;;;7.70;;
20423;SDS011;10371;49.042;8.002;2022-11-11T00:30:02;5.00;;;4.50;;
20423;SDS011;10371;49.042;8.002;2022-11-11T00:31:03;5.97;;;4.80;;
20423;SDS011;10371;49.042;8.002;2022-11-11T00:32:05;4.73;;;4.33;;
20423;SDS011;10371;49.042;8.002;2022-11-11T00:33:22;5.27;;;3.77;;
20423;SDS011;10371;49.042;8.002;2022-11-11T00:34:22;3.93;;;3.40;;
20423;SDS011;10371;49.042;8.002;2022-11-11T00:35:22;3.80;;;3.50;;
20423;SDS011;10371;49.042;8.002;2022-11-11T00:36:41;3.50;;;3.20;;
20423;SDS011;10371;49.042;8.002;2022-11-11T00:37:42;4.03;;;3.47;;
20423;SDS011;10371;49.042;8.002;2022-11-11T00:38:43;3.50;;;3.20;;
20423;SDS011;10371;49.042;8.002;2022-11-11T00:39:46;5.33;;;3.27;;
20423;SDS011;10371;49.042;8.002;2022-11-11T00:40:47;4.53;;;3.27;;
20423;SDS011;10371;49.042;8.002;2022-11-11T00:41:47;3.93;;;3.20;;
20423;SDS011;10371;49.042;8.002;2022-11-11T00:42:47;4.10;;;3.10;;
20423;SDS011;10371;49.042;8.002;2022-11-11T00:43:48;3.40;;;3.10;;
20423;SDS011;10371;49.042;8.002;2022-11-11T00:44:48;3.20;;;2.90;;
20423;SDS011;10371;49.042;8.002;2022-11-11T00:45:49;3.37;;;3.07;;
20423;SDS011;10371;49.042;8.002;2022-11-11T00:46:49;3.67;;;3.13;;
20423;SDS011;10371;49.042;8.002;2022-11-11T00:48:08;3.67;;;3.20;;
20423;SDS011;10371;49.042;8.002;2022-11-11T00:49:27;5.97;;;3.07;;
20423;SDS011;10371;49.042;8.002;2022-11-11T00:50:46;3.60;;;3.30;;
20423;SDS011;10371;49.042;8.002;2022-11-11T00:51:57;8.03;;;3.17;;
20423;SDS011;10371;49.042;8.002;2022-11-11T00:52:57;4.50;;;3.20;;
20423;SDS011;10371;49.042;8.002;2022-11-11T00:53:58;4.13;;;3.20;;
20423;SDS011;10371;49.042;8.002;2022-11-11T00:54:58;3.10;;;2.90;;
20423;SDS011;10371;49.042;8.002;2022-11-11T00:55:58;3.20;;;2.87;;
20423;SDS011;10371;49.042;8.002;2022-11-11T00:56:59;5.70;;;3.40;;
20423;SDS011;10371;49.042;8.002;2022-11-11T00:57:59;3.50;;;3.20;;
20423;SDS011;10371;49.042;8.002;2022-11-11T00:58:59;3.93;;;3.20;;
20423;SDS011;10371;49.042;8.002;2022-11-11T01:00:00;4.80;;;3.13;;
20423;SDS011;10371;49.042;8.002;2022-11-11T01:01:00;3.93;;;3.53;;
20423;SDS011;10371;49.042;8.002;2022-11-11T01:02:00;4.80;;;3.17;;
20423;SDS011;10371;49.042;8.002;2022-11-11T01:03:00;3.67;;;3.37;;
20423;SDS011;10371;49.042;8.002;2022-11-11T01:04:01;3.93;;;3.50;;
20423;SDS011;10371;49.042;8.002;2022-11-11T01:05:01;4.20;;;3.50;;
20423;SDS011;10371;49.042;8.002;2022-11-11T01:06:02;4.23;;;3.50;;
20423;SDS011;10371;49.042;8.002;2022-11-11T01:07:03;6.30;;;3.47;;
20423;SDS011;10371;49.042;8.002;2022-11-11T01:08:04;3.53;;;3.27;;
20423;SDS011;10371;49.042;8.002;2022-11-11T01:09:05;5.10;;;3.03;;
20423;SDS011;10371;49.042;8.002;2022-11-11T01:10:06;3.40;;;3.10;;
20423;SDS011;10371;49.042;8.002;2022-11-11T01:11:13;3.03;;;2.83;;
20423;SDS011;10371;49.042;8.002;2022-11-11T01:12:15;3.93;;;3.03;;
20423;SDS011;10371;49.042;8.002;2022-11-11T01:13:17;4.90;;;3.73;;
20423;SDS011;10371;49.042;8.002;2022-11-11T01:14:20;4.00;;;3.20;;
20423;SDS011;10371;49.042;8.002;2022-11-11T01:15:20;3.40;;;3.10;;
20423;SDS011;10371;49.042;8.002;2022-11-11T01:16:21;3.13;;;2.83;;
20423;SDS011;10371;49.042;8.002;2022-11-11T01:17:23;3.30;;;3.10;;
20423;SDS011;10371;49.042;8.002;2022-11-11T01:18:24;3.33;;;2.87;;
20423;SDS011;10371;49.042;8.002;2022-11-11T01:19:25;3.50;;;3.20;;
20423;SDS011;10371;49.042;8.002;2022-11-11T01:20:25;3.30;;;3.00;;
20423;SDS011;10371;49.042;8.002;2022-11-11T01:21:25;2.83;;;2.63;;
20423;SDS011;10371;49.042;8.002;2022-11-11T01:22:26;3.57;;;3.27;;
20423;SDS011;10371;49.042;8.002;2022-11-11T01:23:27;3.53;;;2.77;;
20423;SDS011;10371;49.042;8.002;2022-11-11T01:24:28;3.47;;;3.23;;
20423;SDS011;10371;49.042;8.002;2022-11-11T01:25:28;4.23;;;3.30;;
20423;SDS011;10371;49.042;8.002;2022-11-11T01:26:29;6.03;;;3.27;;
20423;SDS011;10371;49.042;8.002;2022-11-11T01:27:29;3.20;;;2.90;;
20423;SDS011;10371;49.042;8.002;2022-11-11T01:28:30;3.23;;;2.87;;
20423;SDS011;10371;49.042;8.002;2022-11-11T01:29:30;4.93;;;3.70;;
20423;SDS011;10371;49.042;8.002;2022-11-11T01:30:31;4.90;;;3.80;;
20423;SDS011;10371;49.042;8.002;2022-11-11T01:31:32;3.47;;;3.17;;
20423;SDS011;10371;49.042;8.002;2022-11-11T01:32:32;5.43;;;3.40;;
20423;SDS011;10371;49.042;8.002;2022-11-11T01:33:33;3.43;;;3.13;;
20423;SDS011;10371;49.042;8.002;2022-11-11T01:34:33;3.27;;;2.97;;
20423;SDS011;10371;49.042;8.002;2022-11-11T01:35:37;3.77;;;3.20;;
20423;SDS011;10371;49.042;8.002;2022-11-11T01:36:38;3.80;;;3.13;;
20423;SDS011;10371;49.042;8.002;2022-11-11T01:37:39;3.23;;;3.00;;
20423;SDS011;10371;49.042;8.002;2022-11-11T01:38:39;4.00;;;3.23;;
20423;SDS011;10371;49.042;8.002;2022-11-11T01:39:43;3.37;;;3.07;;
20423;SDS011;10371;49.042;8.002;2022-11-11T01:40:45;5.40;;;3.10;;
20423;SDS011;10371;49.042;8.002;2022-11-11T01:41:46;3.07;;;2.80;;
20423;SDS011;10371;49.042;8.002;2022-11-11T01:42:50;3.20;;;2.90;;
20423;SDS011;10371;49.042;8.002;2022-11-11T01:43:52;6.83;;;2.90;;
20423;SDS011;10371;49.042;8.002;2022-11-11T01:44:53;3.57;;;2.90;;
20423;SDS011;10371;49.042;8.002;2022-11-11T01:45:57;3.53;;;2.60;;
20423;SDS011;10371;49.042;8.002;2022-11-11T01:47:00;3.33;;;2.90;;
20423;SDS011;10371;49.042;8.002;2022-11-11T01:48:02;3.57;;;3.20;;
20423;SDS011;10371;49.042;8.002;2022-11-11T01:49:24;4.77;;;3.33;;
20423;SDS011;10371;49.042;8.002;2022-11-11T01:50:41;3.40;;;3.10;;
20423;SDS011;10371;49.042;8.002;2022-11-11T01:51:56;3.70;;;3.40;;
20423;SDS011;10371;49.042;8.002;2022-11-11T01:53:07;5.07;;;3.20;;
20423;SDS011;10371;49.042;8.002;2022-11-11T01:54:09;3.77;;;3.03;;
20423;SDS011;10371;49.042;8.002;2022-11-11T01:55:40;3.33;;;3.00;;
20423;SDS011;10371;49.042;8.002;2022-11-11T01:56:41;3.50;;;3.20;;
20423;SDS011;10371;49.042;8.002;2022-11-11T01:57:47;5.53;;;3.10;;
20423;SDS011;10371;49.042;8.002;2022-11-11T01:58:52;3.57;;;3.00;;
20423;SDS011;10371;49.042;8.002;2022-11-11T01:59:58;4.07;;;3.10;;
20423;SDS011;10371;49.042;8.002;2022-11-11T02:01:01;4.10;;;2.80;;
20423;SDS011;10371;49.042;8.002;2022-11-11T02:02:04;4.47;;;2.90;;
20423;SDS011;10371;49.042;8.002;2022-11-11T02:03:14;3.30;;;3.00;;
20423;SDS011;10371;49.042;8.002;2022-11-11T02:04:18;2.90;;;2.60;;
20423;SDS011;10371;49.042;8.002;2022-11-11T02:05:37;3.10;;;2.90;;
20423;SDS011;10371;49.042;8.002;2022-11-11T02:06:47;4.43;;;2.70;;
20423;SDS011;10371;49.042;8.002;2022-11-11T02:07:49;4.20;;;3.10;;
20423;SDS011;10371;49.042;8.002;2022-11-11T02:08:50;3.33;;;2.83;;
20423;SDS011;10371;49.042;8.002;2022-11-11T02:09:50;5.23;;;3.07;;
20423;SDS011;10371;49.042;8.002;2022-11-11T02:10:51;3.50;;;2.80;;
20423;SDS011;10371;49.042;8.002;2022-11-11T02:11:52;4.13;;;2.67;;
20423;SDS011;10371;49.042;8.002;2022-11-11T02:13:14;7.43;;;2.47;;
20423;SDS011;10371;49.042;8.002;2022-11-11T02:14:35;3.83;;;2.37;;
20423;SDS011;10371;49.042;8.002;2022-11-11T02:15:42;3.37;;;2.77;;
20423;SDS011;10371;49.042;8.002;2022-11-11T02:16:42;3.00;;;2.80;;
20423;SDS011;10371;49.042;8.002;2022-11-11T02:17:42;2.80;;;2.50;;
20423;SDS011;10371;49.042;8.002;2022-11-11T02:18:46;2.70;;;2.50;;
20423;SDS011;10371;49.042;8.002;2022-11-11T02:20:00;3.33;;;3.00;;
20423;SDS011;10371;49.042;8.002;2022-11-11T02:21:01;3.20;;;2.90;;
20423;SDS011;10371;49.042;8.002;2022-11-11T02:22:02;3.57;;;2.70;;
20423;SDS011;10371;49.042;8.002;2022-11-11T02:24:30;4.33;;;3.00;;
20423;SDS011;10371;49.042;8.002;2022-11-11T02:25:31;2.93;;;2.73;;
20423;SDS011;10371;49.042;8.002;2022-11-11T02:26:33;4.17;;;2.80;;
20423;SDS011;10371;49.042;8.002;2022-11-11T02:27:37;3.47;;;2.60;;
20423;SDS011;10371;49.042;8.002;2022-11-11T02:28:41;4.10;;;2.70;;
20423;SDS011;10371;49.042;8.002;2022-11-11T02:29:42;3.43;;;2.60;;
20423;SDS011;10371;49.042;8.002;2022-11-11T02:30:45;2.90;;;2.70;;
20423;SDS011;10371;49.042;8.002;2022-11-11T02:31:45;3.30;;;2.50;;
20423;SDS011;10371;49.042;8.002;2022-11-11T02:32:47;3.93;;;2.40;;
20423;SDS011;10371;49.042;8.002;2022-11-11T02:33:48;5.10;;;2.47;;
20423;SDS011;10371;49.042;8.002;2022-11-11T02:34:49;2.50;;;2.30;;
20423;SDS011;10371;49.042;8.002;2022-11-11T02:35:50;2.30;;;2.10;;
20423;SDS011;10371;49.042;8.002;2022-11-11T02:36:55;4.43;;;2.43;;
20423;SDS011;10371;49.042;8.002;2022-11-11T02:37:55;4.37;;;2.40;;
20423;SDS011;10371;49.042;8.002;2022-11-11T02:38:56;3.47;;;2.50;;
20423;SDS011;10371;49.042;8.002;2022-11-11T02:39:57;4.70;;;2.60;;
20423;SDS011;10371;49.042;8.002;2022-11-11T02:41:00;2.20;;;2.10;;
20423;SDS011;10371;49.042;8.002;2022-11-11T02:42:20;4.97;;;2.50;;
20423;SDS011;10371;49.042;8.002;2022-11-11T02:43:22;2.50;;;2.30;;
20423;SDS011;10371;49.042;8.002;2022-11-11T02:44:23;3.00;;;2.70;;
20423;SDS011;10371;49.042;8.002;2022-11-11T02:45:24;2.40;;;2.20;;
20423;SDS011;10371;49.042;8.002;2022-11-11T02:46:24;2.57;;;2.37;;
20423;SDS011;10371;49.042;8.002;2022-11-11T02:47:25;2.80;;;2.60;;
20423;SDS011;10371;49.042;8.002;2022-11-11T02:48:26;2.63;;;2.43;;
20423;SDS011;10371;49.042;8.002;2022-11-11T02:49:27;3.60;;;2.77;;
20423;SDS011;10371;49.042;8.002;2022-11-11T02:50:27;2.70;;;2.50;;
20423;SDS011;10371;49.042;8.002;2022-11-11T02:51:27;4.13;;;2.77;;
20423;SDS011;10371;49.042;8.002;2022-11-11T02:52:28;2.77;;;2.37;;
20423;SDS011;10371;49.042;8.002;2022-11-11T02:53:28;4.77;;;2.43;;
20423;SDS011;10371;49.042;8.002;2022-11-11T02:54:28;2.23;;;2.10;;
20423;SDS011;10371;49.042;8.002;2022-11-11T02:55:29;2.57;;;2.37;;
20423;SDS011;10371;49.042;8.002;2022-11-11T02:56:29;2.60;;;2.40;;
20423;SDS011;10371;49.042;8.002;2022-11-11T02:57:48;2.80;;;2.40;;
20423;SDS011;10371;49.042;8.002;2022-11-11T02:58:48;2.97;;;2.27;;
20423;SDS011;10371;49.042;8.002;2022-11-11T02:59:48;2.57;;;2.37;;
20423;SDS011;10371;49.042;8.002;2022-11-11T03:00:48;3.87;;;2.40;;
20423;SDS011;10371;49.042;8.002;2022-11-11T03:01:49;2.50;;;2.30;;
20423;SDS011;10371;49.042;8.002;2022-11-11T03:02:49;2.47;;;2.27;;
20423;SDS011;10371;49.042;8.002;2022-11-11T03:03:49;2.70;;;2.50;;
20423;SDS011;10371;49.042;8.002;2022-11-11T03:04:49;2.60;;;2.40;;
20423;SDS011;10371;49.042;8.002;2022-11-11T03:05:50;2.60;;;2.40;;
20423;SDS011;10371;49.042;8.002;2022-11-11T03:06:50;2.67;;;2.47;;
20423;SDS011;10371;49.042;8.002;2022-11-11T03:07:50;2.43;;;2.27;;
20423;SDS011;10371;49.042;8.002;2022-11-11T03:08:50;2.93;;;2.37;;
20423;SDS011;10371;49.042;8.002;2022-11-11T03:09:51;2.40;;;2.20;;
20423;SDS011;10371;49.042;8.002;2022-11-11T03:10:51;2.70;;;2.50;;
20423;SDS011;10371;49.042;8.002;2022-11-11T03:11:51;2.40;;;2.13;;
20423;SDS011;10371;49.042;8.002;2022-11-11T03:12:52;2.67;;;2.47;;
20423;SDS011;10371;49.042;8.002;2022-11-11T03:14:01;2.70;;;2.50;;
20423;SDS011;10371;49.042;8.002;2022-11-11T03:15:01;2.53;;;2.33;;
20423;SDS011;10371;49.042;8.002;2022-11-11T03:16:02;2.47;;;2.10;;
20423;SDS011;10371;49.042;8.002;2022-11-11T03:17:02;2.43;;;2.00;;
20423;SDS011;10371;49.042;8.002;2022-11-11T03:18:21;2.50;;;2.30;;
20423;SDS011;10371;49.042;8.002;2022-11-11T03:19:21;2.30;;;2.10;;
20423;SDS011;10371;49.042;8.002;2022-11-11T03:20:22;3.10;;;2.30;;
20423;SDS011;10371;49.042;8.002;2022-11-11T03:21:41;2.20;;;2.00;;
20423;SDS011;10371;49.042;8.002;2022-11-11T03:22:41;2.73;;;2.10;;
20423;SDS011;10371;49.042;8.002;2022-11-11T03:23:41;2.40;;;2.20;;
20423;SDS011;10371;49.042;8.002;2022-11-11T03:24:42;2.73;;;2.30;;
20423;SDS011;10371;49.042;8.002;2022-11-11T03:26:00;4.23;;;2.40;;
20423;SDS011;10371;49.042;8.002;2022-11-11T03:27:01;2.20;;;2.00;;
20423;SDS011;10371;49.042;8.002;2022-11-11T03:28:01;2.10;;;2.00;;
20423;SDS011;10371;49.042;8.002;2022-11-11T03:29:02;2.40;;;2.20;;
20423;SDS011;10371;49.042;8.002;2022-11-11T03:30:02;2.90;;;2.10;;
20423;SDS011;10371;49.042;8.002;2022-11-11T03:31:03;5.00;;;2.17;;
20423;SDS011;10371;49.042;8.002;2022-11-11T03:32:04;3.20;;;2.00;;
20423;SDS011;10371;49.042;8.002;2022-11-11T03:33:05;3.33;;;2.27;;
20423;SDS011;10371;49.042;8.002;2022-11-11T03:34:06;2.40;;;2.20;;
20423;SDS011;10371;49.042;8.002;2022-11-11T03:35:18;4.07;;;2.20;;
20423;SDS011;10371;49.042;8.002;2022-11-11T03:36:19;3.27;;;2.63;;
20423;SDS011;10371;49.042;8.002;2022-11-11T03:37:19;4.67;;;2.77;;
20423;SDS011;10371;49.042;8.002;2022-11-11T03:38:38;3.07;;;2.80;;
20423;SDS011;10371;49.042;8.002;2022-11-11T03:39:38;3.47;;;2.93;;
20423;SDS011;10371;49.042;8.002;2022-11-11T03:40:39;4.07;;;3.17;;
20423;SDS011;10371;49.042;8.002;2022-11-11T03:41:39;4.30;;;3.40;;
20423;SDS011;10371;49.042;8.002;2022-11-11T03:42:40;3.80;;;3.47;;
20423;SDS011;10371;49.042;8.002;2022-11-11T03:43:42;3.93;;;3.20;;
20423;SDS011;10371;49.042;8.002;2022-11-11T03:44:42;4.53;;;3.53;;
20423;SDS011;10371;49.042;8.002;2022-11-11T03:45:43;7.00;;;3.87;;
20423;SDS011;10371;49.042;8.002;2022-11-11T03:46:43;5.10;;;3.30;;
20423;SDS011;10371;49.042;8.002;2022-11-11T03:47:44;4.63;;;3.40;;
20423;SDS011;10371;49.042;8.002;2022-11-11T03:48:44;3.43;;;3.13;;
20423;SDS011;10371;49.042;8.002;2022-11-11T03:49:44;5.00;;;3.40;;
20423;SDS011;10371;49.042;8.002;2022-11-11T03:50:45;3.10;;;2.80;;
20423;SDS011;10371;49.042;8.002;2022-11-11T03:51:46;7.10;;;3.43;;
20423;SDS011;10371;49.042;8.002;2022-11-11T03:52:47;5.60;;;2.73;;
20423;SDS011;10371;49.042;8.002;2022-11-11T03:53:47;5.97;;;2.70;;
20423;SDS011;10371;49.042;8.002;2022-11-11T03:54:47;4.60;;;3.13;;
20423;SDS011;10371;49.042;8.002;2022-11-11T03:55:48;6.57;;;2.50;;
20423;SDS011;10371;49.042;8.002;2022-11-11T03:56:49;9.30;;;3.00;;
20423;SDS011;10371;49.042;8.002;2022-11-11T03:57:49;4.30;;;2.70;;
20423;SDS011;10371;49.042;8.002;2022-11-11T03:58:49;4.10;;;3.10;;
20423;SDS011;10371;49.042;8.002;2022-11-11T03:59:50;4.83;;;3.40;;
20423;SDS011;10371;49.042;8.002;2022-11-11T04:00:50;6.23;;;3.27;;
20423;SDS011;10371;49.042;8.002;2022-11-11T04:01:50;7.43;;;3.17;;
20423;SDS011;10371;49.042;8.002;2022-11-11T04:03:13;6.43;;;3.57;;
20423;SDS011;10371;49.042;8.002;2022-11-11T04:04:34;5.07;;;3.27;;
20423;SDS011;10371;49.042;8.002;2022-11-11T04:05:52;3.60;;;3.30;;
20423;SDS011;10371;49.042;8.002;2022-11-11T04:07:12;3.47;;;2.97;;
20423;SDS011;10371;49.042;8.002;2022-11-11T04:08:47;5.40;;;3.00;;
20423;SDS011;10371;49.042;8.002;2022-11-11T04:10:07;4.33;;;2.70;;
20423;SDS011;10371;49.042;8.002;2022-11-11T04:12:04;3.07;;;2.57;;
20423;SDS011;10371;49.042;8.002;2022-11-11T04:12:47;2.60;;;2.40;;
20423;SDS011;10371;49.042;8.002;2022-11-11T04:14:10;3.27;;;2.57;;
20423;SDS011;10371;49.042;8.002;2022-11-11T04:15:30;2.97;;;2.67;;
20423;SDS011;10371;49.042;8.002;2022-11-11T04:16:49;2.90;;;2.70;;
20423;SDS011;10371;49.042;8.002;2022-11-11T04:17:49;3.73;;;3.00;;
20423;SDS011;10371;49.042;8.002;2022-11-11T04:18:49;3.07;;;2.77;;
20423;SDS011;10371;49.042;8.002;2022-11-11T04:20:08;4.43;;;3.47;;
20423;SDS011;10371;49.042;8.002;2022-11-11T04:21:28;7.73;;;3.30;;
20423;SDS011;10371;49.042;8.002;2022-11-11T04:22:43;7.47;;;3.80;;
20423;SDS011;10371;49.042;8.002;2022-11-11T04:23:43;4.23;;;3.17;;
20423;SDS011;10371;49.042;8.002;2022-11-11T04:24:43;6.13;;;3.70;;
20423;SDS011;10371;49.042;8.002;2022-11-11T04:26:02;3.93;;;3.53;;
20423;SDS011;10371;49.042;8.002;2022-11-11T04:27:04;5.63;;;3.90;;
20423;SDS011;10371;49.042;8.002;2022-11-11T04:28:08;4.10;;;3.63;;
20423;SDS011;10371;49.042;8.002;2022-11-11T04:29:27;4.70;;;3.53;;
20423;SDS011;10371;49.042;8.002;2022-11-11T04:30:28;5.00;;;3.47;;
20423;SDS011;10371;49.042;8.002;2022-11-11T04:31:28;4.83;;;3.70;;
20423;SDS011;10371;49.042;8.002;2022-11-11T04:32:29;5.30;;;3.30;;
20423;SDS011;10371;49.042;8.002;2022-11-11T04:33:37;4.07;;;3.67;;
20423;SDS011;10371;49.042;8.002;2022-11-11T04:34:37;4.53;;;3.80;;
20423;SDS011;10371;49.042;8.002;2022-11-11T04:35:38;5.80;;;3.47;;
20423;SDS011;10371;49.042;8.002;2022-11-11T04:36:38;4.00;;;3.60;;
20423;SDS011;10371;49.042;8.002;2022-11-11T04:37:48;5.57;;;4.03;;
20423;SDS011;10371;49.042;8.002;2022-11-11T04:38:48;6.00;;;3.60;;
20423;SDS011;10371;49.042;8.002;2022-11-11T04:40:07;10.80;;;4.67;;
20423;SDS011;10371;49.042;8.002;2022-11-11T04:41:27;9.57;;;5.80;;
20423;SDS011;10371;49.042;8.002;2022-11-11T04:42:27;9.73;;;6.50;;
20423;SDS011;10371;49.042;8.002;2022-11-11T04:43:29;7.90;;;5.90;;
20423;SDS011;10371;49.042;8.002;2022-11-11T04:44:30;10.63;;;5.77;;
20423;SDS011;10371;49.042;8.002;2022-11-11T04:45:49;9.07;;;6.80;;
20423;SDS011;10371;49.042;8.002;2022-11-11T04:46:49;9.80;;;7.60;;
20423;SDS011;10371;49.042;8.002;2022-11-11T04:49:03;14.60;;;8.60;;
20423;SDS011;10371;49.042;8.002;2022-11-11T04:50:04;14.67;;;9.07;;
20423;SDS011;10371;49.042;8.002;2022-11-11T04:51:04;12.27;;;8.50;;
20423;SDS011;10371;49.042;8.002;2022-11-11T04:52:05;14.40;;;7.90;;
20423;SDS011;10371;49.042;8.002;2022-11-11T04:53:23;10.17;;;7.30;;
20423;SDS011;10371;49.042;8.002;2022-11-11T04:54:24;7.43;;;6.73;;
20423;SDS011;10371;49.042;8.002;2022-11-11T04:55:24;6.50;;;5.83;;
20423;SDS011;10371;49.042;8.002;2022-11-11T04:56:43;8.00;;;5.80;;
20423;SDS011;10371;49.042;8.002;2022-11-11T04:57:49;7.23;;;5.23;;
20423;SDS011;10371;49.042;8.002;2022-11-11T04:58:49;9.83;;;4.90;;
20423;SDS011;10371;49.042;8.002;2022-11-11T05:00:11;5.83;;;5.00;;
20423;SDS011;10371;49.042;8.002;2022-11-11T05:01:16;12.23;;;6.10;;
20423;SDS011;10371;49.042;8.002;2022-11-11T05:02:36;10.73;;;4.80;;
20423;SDS011;10371;49.042;8.002;2022-11-11T05:03:55;4.80;;;4.07;;
20423;SDS011;10371;49.042;8.002;2022-11-11T05:04:55;5.07;;;4.17;;
20423;SDS011;10371;49.042;8.002;2022-11-11T05:05:57;10.47;;;4.23;;
20423;SDS011;10371;49.042;8.002;2022-11-11T05:07:17;8.63;;;4.20;;
20423;SDS011;10371;49.042;8.002;2022-11-11T05:08:37;15.03;;;4.40;;
20423;SDS011;10371;49.042;8.002;2022-11-11T05:09:57;17.17;;;4.90;;
20423;SDS011;10371;49.042;8.002;2022-11-11T05:10:58;5.23;;;3.97;;
20423;SDS011;10371;49.042;8.002;2022-11-11T05:11:59;8.97;;;4.37;;
20423;SDS011;10371;49.042;8.002;2022-11-11T05:12:59;4.73;;;4.10;;
20423;SDS011;10371;49.042;8.002;2022-11-11T05:14:18;8.47;;;4.60;;
20423;SDS011;10371;49.042;8.002;2022-11-11T05:15:37;4.80;;;4.40;;
20423;SDS011;10371;49.042;8.002;2022-11-11T05:16:56;5.10;;;4.10;;
20423;SDS011;10371;49.042;8.002;2022-11-11T05:18:16;5.67;;;3.87;;
20423;SDS011;10371;49.042;8.002;2022-11-11T05:19:35;4.03;;;3.70;;
20423;SDS011;10371;49.042;8.002;2022-11-11T05:20:54;4.40;;;4.00;;
20423;SDS011;10371;49.042;8.002;2022-11-11T05:22:15;4.40;;;4.00;;
20423;SDS011;10371;49.042;8.002;2022-11-11T05:23:24;4.47;;;4.07;;
20423;SDS011;10371;49.042;8.002;2022-11-11T05:24:45;4.93;;;4.43;;
20423;SDS011;10371;49.042;8.002;2022-11-11T05:26:03;6.90;;;4.50;;
20423;SDS011;10371;49.042;8.002;2022-11-11T05:27:04;4.37;;;3.97;;
20423;SDS011;10371;49.042;8.002;2022-11-11T05:28:04;5.00;;;4.50;;
20423;SDS011;10371;49.042;8.002;2022-11-11T05:29:04;4.73;;;4.20;;
20423;SDS011;10371;49.042;8.002;2022-11-11T05:30:05;4.87;;;4.47;;
20423;SDS011;10371;49.042;8.002;2022-11-11T05:31:07;5.23;;;4.73;;
20423;SDS011;10371;49.042;8.002;2022-11-11T05:32:07;5.00;;;4.50;;
20423;SDS011;10371;49.042;8.002;2022-11-11T05:33:08;4.20;;;3.90;;
20423;SDS011;10371;49.042;8.002;2022-11-11T05:34:08;5.20;;;4.70;;
20423;SDS011;10371;49.042;8.002;2022-11-11T05:35:09;4.80;;;4.33;;
20423;SDS011;10371;49.042;8.002;2022-11-11T05:36:11;5.63;;;5.07;;
20423;SDS011;10371;49.042;8.002;2022-11-11T05:37:11;6.17;;;5.57;;
20423;SDS011;10371;49.042;8.002;2022-11-11T05:38:11;6.73;;;6.13;;
20423;SDS011;10371;49.042;8.002;2022-11-11T05:39:20;6.23;;;5.63;;
20423;SDS011;10371;49.042;8.002;2022-11-11T05:40:21;7.00;;;5.50;;
20423;SDS011;10371;49.042;8.002;2022-11-11T05:41:21;7.57;;;5.97;;
20423;SDS011;10371;49.042;8.002;2022-11-11T05:42:21;8.27;;;6.07;;
20423;SDS011;10371;49.042;8.002;2022-11-11T05:43:22;7.50;;;5.43;;
20423;SDS011;10371;49.042;8.002;2022-11-11T05:44:22;5.77;;;5.27;;
20423;SDS011;10371;49.042;8.002;2022-11-11T05:45:22;7.30;;;5.70;;
20423;SDS011;10371;49.042;8.002;2022-11-11T05:46:22;5.03;;;4.60;;
20423;SDS011;10371;49.042;8.002;2022-11-11T05:47:23;4.60;;;4.20;;
20423;SDS011;10371;49.042;8.002;2022-11-11T05:48:23;7.70;;;4.57;;
20423;SDS011;10371;49.042;8.002;2022-11-11T05:49:23;5.40;;;4.37;;
20423;SDS011;10371;49.042;8.002;2022-11-11T05:50:24;6.10;;;4.47;;
20423;SDS011;10371;49.042;8.002;2022-11-11T05:51:24;6.03;;;4.20;;
20423;SDS011;10371;49.042;8.002;2022-11-11T05:52:26;8.83;;;4.10;;
20423;SDS011;10371;49.042;8.002;2022-11-11T05:53:27;4.87;;;4.27;;
20423;SDS011;10371;49.042;8.002;2022-11-11T05:54:27;5.40;;;4.33;;
20423;SDS011;10371;49.042;8.002;2022-11-11T05:55:28;5.47;;;4.23;;
20423;SDS011;10371;49.042;8.002;2022-11-11T05:56:28;5.00;;;3.90;;
20423;SDS011;10371;49.042;8.002;2022-11-11T05:57:28;5.90;;;4.70;;
20423;SDS011;10371;49.042;8.002;2022-11-11T05:58:28;5.97;;;4.90;;
20423;SDS011;10371;49.042;8.002;2022-11-11T05:59:29;6.63;;;5.23;;
20423;SDS011;10371;49.042;8.002;2022-11-11T06:00:29;7.17;;;5.90;;
20423;SDS011;10371;49.042;8.002;2022-11-11T06:01:30;5.80;;;5.20;;
20423;SDS011;10371;49.042;8.002;2022-11-11T06:02:30;5.70;;;5.03;;
20423;SDS011;10371;49.042;8.002;2022-11-11T06:03:31;6.97;;;4.47;;
20423;SDS011;10371;49.042;8.002;2022-11-11T06:04:31;5.03;;;4.23;;
20423;SDS011;10371;49.042;8.002;2022-11-11T06:05:37;5.63;;;4.23;;
20423;SDS011;10371;49.042;8.002;2022-11-11T06:06:37;5.40;;;4.13;;
20423;SDS011;10371;49.042;8.002;2022-11-11T06:07:38;8.23;;;4.37;;
20423;SDS011;10371;49.042;8.002;2022-11-11T06:08:39;5.83;;;4.10;;
20423;SDS011;10371;49.042;8.002;2022-11-11T06:09:40;5.90;;;4.17;;
20423;SDS011;10371;49.042;8.002;2022-11-11T06:10:40;5.27;;;4.03;;
20423;SDS011;10371;49.042;8.002;2022-11-11T06:11:41;5.23;;;4.23;;
20423;SDS011;10371;49.042;8.002;2022-11-11T06:12:42;5.20;;;4.63;;
20423;SDS011;10371;49.042;8.002;2022-11-11T06:14:01;4.63;;;3.80;;
20423;SDS011;10371;49.042;8.002;2022-11-11T06:15:01;5.53;;;4.93;;
20423;SDS011;10371;49.042;8.002;2022-11-11T06:16:02;5.90;;;4.40;;
20423;SDS011;10371;49.042;8.002;2022-11-11T06:17:03;6.90;;;4.63;;
20423;SDS011;10371;49.042;8.002;2022-11-11T06:18:04;6.53;;;4.70;;
20423;SDS011;10371;49.042;8.002;2022-11-11T06:19:05;5.20;;;4.70;;
20423;SDS011;10371;49.042;8.002;2022-11-11T06:20:05;5.63;;;4.83;;
20423;SDS011;10371;49.042;8.002;2022-11-11T06:21:06;5.00;;;4.20;;
20423;SDS011;10371;49.042;8.002;2022-11-11T06:22:06;9.07;;;4.47;;
20423;SDS011;10371;49.042;8.002;2022-11-11T06:23:06;6.27;;;4.20;;
20423;SDS011;10371;49.042;8.002;2022-11-11T06:24:07;5.20;;;4.37;;
20423;SDS011;10371;49.042;8.002;2022-11-11T06:25:07;7.37;;;4.73;;
20423;SDS011;10371;49.042;8.002;2022-11-11T06:26:26;6.40;;;4.50;;
20423;SDS011;10371;49.042;8.002;2022-11-11T06:27:26;6.93;;;4.63;;
20423;SDS011;10371;49.042;8.002;2022-11-11T06:28:26;8.10;;;5.07;;
20423;SDS011;10371;49.042;8.002;2022-11-11T06:29:27;8.87;;;5.07;;
20423;SDS011;10371;49.042;8.002;2022-11-11T06:30:27;6.63;;;4.60;;
20423;SDS011;10371;49.042;8.002;2022-11-11T06:31:27;6.87;;;5.13;;